Map

Track Data

SID SEASON NUMBER BASIN SUBBASIN NAME ISO_TIME NATURE LAT LON WMO_WIND WMO_PRES WMO_AGENCY TRACK_TYPE DIST2LAND LANDFALL IFLAG USA_AGENCY USA_ATCF_ID USA_LAT USA_LON USA_RECORD USA_STATUS USA_WIND USA_PRES USA_SSHS USA_R34_NE USA_R34_SE USA_R34_SW USA_R34_NW USA_R50_NE USA_R50_SE USA_R50_SW USA_R50_NW USA_R64_NE USA_R64_SE USA_R64_SW USA_R64_NW USA_POCI USA_ROCI USA_RMW USA_EYE TOKYO_LAT TOKYO_LON TOKYO_GRADE TOKYO_WIND TOKYO_PRES TOKYO_R50_DIR TOKYO_R50_LONG TOKYO_R50_SHORT TOKYO_R30_DIR TOKYO_R30_LONG TOKYO_R30_SHORT TOKYO_LAND CMA_LAT CMA_LON CMA_CAT CMA_WIND CMA_PRES HKO_LAT HKO_LON HKO_CAT HKO_WIND HKO_PRES NEWDELHI_LAT NEWDELHI_LON NEWDELHI_GRADE NEWDELHI_WIND NEWDELHI_PRES NEWDELHI_CI NEWDELHI_DP NEWDELHI_POCI REUNION_LAT REUNION_LON REUNION_TYPE REUNION_WIND REUNION_PRES REUNION_TNUM REUNION_CI REUNION_RMW REUNION_R34_NE REUNION_R34_SE REUNION_R34_SW REUNION_R34_NW REUNION_R50_NE REUNION_R50_SE REUNION_R50_SW REUNION_R50_NW REUNION_R64_NE REUNION_R64_SE REUNION_R64_SW REUNION_R64_NW BOM_LAT BOM_LON BOM_TYPE BOM_WIND BOM_PRES BOM_TNUM BOM_CI BOM_RMW BOM_R34_NE BOM_R34_SE BOM_R34_SW BOM_R34_NW BOM_R50_NE BOM_R50_SE BOM_R50_SW BOM_R50_NW BOM_R64_NE BOM_R64_SE BOM_R64_SW BOM_R64_NW BOM_ROCI BOM_POCI BOM_EYE BOM_POS_METHOD BOM_PRES_METHOD NADI_LAT NADI_LON NADI_CAT NADI_WIND NADI_PRES WELLINGTON_LAT WELLINGTON_LON WELLINGTON_WIND WELLINGTON_PRES DS824_LAT DS824_LON DS824_STAGE DS824_WIND DS824_PRES TD9636_LAT TD9636_LON TD9636_STAGE TD9636_WIND TD9636_PRES TD9635_LAT TD9635_LON TD9635_WIND TD9635_PRES TD9635_ROCI NEUMANN_LAT NEUMANN_LON NEUMANN_CLASS NEUMANN_WIND NEUMANN_PRES MLC_LAT MLC_LON MLC_CLASS MLC_WIND MLC_PRES USA_GUST BOM_GUST BOM_GUST_PER REUNION_GUST REUNION_GUST_PER USA_SEAHGT USA_SEARAD_NE USA_SEARAD_SE USA_SEARAD_SW USA_SEARAD_NW STORM_SPEED STORM_DIR
1947033S13147 1947 12 SP EA NOT_NAMED 1947-02-01 23:00:00 NR -12.6000 146.650 1000 bom main 300 294 ______O___O___ -1 -12.6000 146.900 1000 -12.6000 146.400 7 6 0
1947033S13147 1947 12 SP EA NOT_NAMED 1947-02-02 00:00:00 TS -12.6982 146.677 main 294 280 O_____P__OP___ jtwc_sh SH121947 -12.7000 146.500 -1 -12.7070 146.934 -12.7000 146.900 TC 30 1000 -12.6868 146.485 7 7 149
1947033S13147 1947 12 SP EA NOT_NAMED 1947-02-02 03:00:00 TS -12.9745 146.875 main 280 271 P_____P__PP___ SH121947 -12.9426 146.770 -1 -13.0272 147.036 -12.9972 147.050 TC -12.9492 146.735 7 7 146
1947033S13147 1947 12 SP EA NOT_NAMED 1947-02-02 06:00:00 TS -13.2552 147.060 main 271 264 O_____P__PP___ jtwc_sh SH121947 -13.2000 147.000 -1 -13.3448 147.137 -13.2945 147.194 TC -13.2188 146.971 7 7 150
1947033S13147 1947 12 SP EA NOT_NAMED 1947-02-02 09:00:00 TS -13.5443 147.214 main 264 257 P_____P__PP___ SH121947 -13.4850 147.165 -1 -13.6578 147.234 -13.5924 147.327 TC -13.5015 147.180 7 7 154
1947033S13147 1947 12 SP EA NOT_NAMED 1947-02-02 11:00:00 TS -13.7475 147.303 main 260 253 P_____P__PO___ SH121947 -13.6916 147.255 -1 -13.8629 147.296 -13.7914 147.406 TC -13.7000 147.300 7 7 158
1947033S13147 1947 12 SP EA NOT_NAMED 1947-02-02 12:00:00 TS -13.8516 147.344 main 248 247 O_____P__PP___ jtwc_sh SH121947 -13.8000 147.300 -1 -13.9642 147.327 -13.8911 147.442 TC -13.8028 147.353 7 7 158
1947033S13147 1947 12 SP EA NOT_NAMED 1947-02-02 15:00:00 TS -14.1752 147.474 main 253 246 P_____P__PP___ SH121947 -14.1500 147.472 -1 -14.2622 147.413 -14.1908 147.533 TC -14.1228 147.480 7 7 161
1947033S13147 1947 12 SP EA NOT_NAMED 1947-02-02 18:00:00 TS -14.4989 147.569 main 252 242 O_____P__PP___ jtwc_sh SH121947 -14.5000 147.600 -1 -14.5496 147.491 -14.4920 147.594 TC -14.4529 147.562 7 6 168
1947033S13147 1947 12 SP EA NOT_NAMED 1947-02-02 21:00:00 TS -14.8036 147.611 main 242 238 P_____P__PP___ SH121947 -14.8075 147.638 -1 -14.8246 147.560 -14.7950 147.618 TC -14.7837 147.600 7 6 175
1947033S13147 1947 12 SP EA NOT_NAMED 1947-02-02 23:00:00 TS -15.0007 147.610 996 bom main 238 237 P_____O__PO___ SH121947 -15.0026 147.619 -1 -15.0000 147.600 996 4 -14.9981 147.611 TC -15.0000 147.600 7 6 0
1947033S13147 1947 12 SP EA NOT_NAMED 1947-02-03 00:00:00 TS -15.0980 147.603 main 237 236 O_____P__OP___ jtwc_sh SH121947 -15.1000 147.600 -1 -15.0852 147.618 -15.1000 147.600 TC 35 996 -15.1046 147.596 7 6 188
1947033S13147 1947 12 SP EA NOT_NAMED 1947-02-03 03:00:00 TS -15.3909 147.553 main 236 218 P_____P__PP___ SH121947 -15.4000 147.508 -1 -15.3340 147.660 -15.4073 147.536 TC -15.4133 147.553 7 6 191
1947033S13147 1947 12 SP EA NOT_NAMED 1947-02-03 06:00:00 TS -15.6823 147.477 main 218 195 O_____P__PP___ jtwc_sh SH121947 -15.7000 147.400 -1 -15.5803 147.677 -15.7167 147.435 TC -15.7146 147.473 7 6 193
1947033S13147 1947 12 SP EA NOT_NAMED 1947-02-03 09:00:00 TS -15.9770 147.408 main 195 183 P_____P__PP___ SH121947 -16.0075 147.350 -1 -15.8337 147.658 -16.0278 147.308 TC -16.0083 147.372 7 6 194
1947033S13147 1947 12 SP EA NOT_NAMED 1947-02-03 11:00:00 TS -16.1718 147.355 main 183 168 P_____P__PO___ SH121947 -16.2057 147.320 -1 -16.0116 147.621 -16.2361 147.215 TC -16.2000 147.300 7 6 195
1947033S13147 1947 12 SP EA NOT_NAMED 1947-02-03 12:00:00 TS -16.2679 147.325 main 168 149 O_____P__PP___ jtwc_sh SH121947 -16.3000 147.300 -1 -16.1043 147.594 -16.3404 147.168 TC -16.2950 147.263 7 6 200
1947033S13147 1947 12 SP EA NOT_NAMED 1947-02-03 15:00:00 TS -16.5461 147.211 main 149 125 P_____P__PP___ SH121947 -16.5500 147.207 -1 -16.4017 147.473 -16.6542 147.025 TC -16.5746 147.142 7 6 203
1947033S13147 1947 12 SP EA NOT_NAMED 1947-02-03 18:00:00 TS -16.8306 147.081 main 125 91 O_____P__PP___ jtwc_sh SH121947 -16.8000 147.100 -1 -16.7357 147.287 -16.9688 146.891 TC -16.8483 147.026 7 7 203
1947033S13147 1947 12 SP EA NOT_NAMED 1947-02-03 21:00:00 TS -17.1439 146.942 main 91 85 P_____P__PP___ SH121947 -17.1000 146.985 -1 -17.1160 147.024 -17.2842 146.779 TC -17.1193 146.935 7 7 202
1947033S13147 1947 12 SP EA NOT_NAMED 1947-02-03 23:00:00 TS -17.3602 146.853 1000 bom main 84 74 P_____O__PO___ SH121947 -17.3031 146.922 -1 -17.4000 146.800 1000 -17.4947 146.722 TC -17.3000 146.900 7 7 201
1947033S13147 1947 12 SP EA NOT_NAMED 1947-02-04 00:00:00 TS -17.4698 146.808 main 74 63 O_____P__OP___ jtwc_sh SH121947 -17.4000 146.900 -1 -17.5538 146.650 -17.6000 146.700 TC 30 1000 -17.3953 146.890 7 7 199
1947033S13147 1947 12 SP EA NOT_NAMED 1947-02-04 03:00:00 TS -17.8115 146.685 main 63 63 P_____P__PP___ SH121947 -17.6500 146.870 -1 -18.0370 146.211 -18.0377 146.584 TC -17.6828 146.892 7 7 197
1947033S13147 1947 12 SP EA NOT_NAMED 1947-02-04 04:00:00 TS -17.9252 146.660 bom main 64 57 P_____O__PP___ SH121947 -17.7308 146.873 -1 -18.2000 146.100 -18.1862 146.550 TC -17.7781 146.902 7 7 188
1947033S13147 1947 12 SP EA NOT_NAMED 1947-02-04 06:00:00 TS -18.1553 146.635 main 53 38 O_____P__PP___ jtwc_sh SH121947 -17.9000 146.900 -1 -18.5327 145.948 -18.4784 146.492 TC -17.9654 146.937 7 7 178
1947033S13147 1947 12 SP EA NOT_NAMED 1947-02-04 09:00:00 TS -18.5035 146.663 bom main 43 42 P_____O__PP___ SH121947 -18.2000 146.970 -1 -19.0000 145.900 -18.8837 146.451 TC -18.2337 147.022 7 7 172
1947033S13147 1947 12 SP EA NOT_NAMED 1947-02-04 11:00:00 TS -18.7244 146.721 main 42 38 P_____P__PO___ SH121947 -18.4031 147.050 -1 -19.3006 145.941 -19.1150 146.465 TC -18.4000 147.100 7 7 163
1947033S13147 1947 12 SP EA NOT_NAMED 1947-02-04 12:00:00 TS -18.8265 146.767 main 44 22 O_____P__PP___ jtwc_sh SH121947 -18.5000 147.100 -1 -19.4286 146.000 -19.2148 146.487 TC -18.4891 147.146 7 7 150
1947033S13147 1947 12 SP EA NOT_NAMED 1947-02-04 14:00:00 TS -19.0039 146.894 bom main 24 15 P_____O__PP___ SH121947 -18.6909 147.223 -1 -19.6000 146.200 -19.3753 146.568 TC -18.6623 147.255 7 6 142
1947033S13147 1947 12 SP EA NOT_NAMED 1947-02-04 15:00:00 TS -19.0744 146.974 main 22 15 P_____P__PP___ SH121947 -18.7800 147.292 -1 -19.6341 146.343 -19.4332 146.628 TC -18.7449 147.315 7 6 120
1947033S13147 1947 12 SP EA NOT_NAMED 1947-02-04 18:00:00 TS -19.2054 147.262 main 24 24 O_____P__OP___ jtwc_sh SH121947 -19.0000 147.500 -1 -19.5608 146.904 -19.5000 146.900 TC -18.9664 147.507 7 6 112
1947033S13147 1947 12 SP EA NOT_NAMED 1947-02-04 19:00:00 TS -19.2236 147.365 bom main 22 22 P_____O__PP___ SH121947 -19.0557 147.558 -1 -19.5000 147.100 -19.4778 147.036 TC -19.0288 147.571 7 6 95
1947033S13147 1947 12 SP EA NOT_NAMED 1947-02-04 21:00:00 TS -19.2320 147.566 main 30 30 P_____P__PP___ SH121947 -19.1375 147.665 -1 -19.3646 147.465 -19.3887 147.341 TC -19.1317 147.693 7 6 87
1947033S13147 1947 12 SP EA NOT_NAMED 1947-02-04 23:00:00 TS -19.2074 147.754 1001 bom main 46 46 P_____O__PO___ SH121947 -19.1860 147.758 -1 -19.2000 147.800 1001 -19.2652 147.655 TC -19.2000 147.800 7 5 81
1947033S13147 1947 12 SP EA NOT_NAMED 1947-02-05 00:00:00 TS -19.1906 147.836 main 46 46 O_____P__OP___ jtwc_sh SH121947 -19.2000 147.800 -1 -19.1313 147.941 -19.2000 147.800 TC 30 1001 -19.2217 147.840 7 4 75
1947033S13147 1947 12 SP EA NOT_NAMED 1947-02-05 03:00:00 TS -19.1389 148.026 main 68 68 P_____P__PP___ SH121947 -19.2300 147.915 -1 -18.9453 148.260 -19.0552 148.101 TC -19.2340 147.937 7 3 66
1947033S13147 1947 12 SP EA NOT_NAMED 1947-02-05 06:00:00 TS -19.0567 148.149 main 77 77 O_____P__PP___ jtwc_sh SH121947 -19.2000 148.000 -1 -18.7866 148.446 -18.9158 148.291 TC -19.1813 148.010 7 3 45
1947033S13147 1947 12 SP EA NOT_NAMED 1947-02-05 09:00:00 TS -18.9551 148.219 main 92 92 P_____P__PP___ SH121947 -19.1300 148.057 -1 -18.6512 148.524 -18.7822 148.389 TC -19.0824 148.066 7 2 25
1947033S13147 1947 12 SP EA NOT_NAMED 1947-02-05 11:00:00 TS -18.8736 148.243 main 99 99 P_____P__PO___ SH121947 -19.0500 148.086 -1 -18.5717 148.528 -18.6963 148.414 TC -19.0000 148.100 7 3 18
1947033S13147 1947 12 SP EA NOT_NAMED 1947-02-05 12:00:00 TS -18.8300 148.252 main 114 114 O_____P__PP___ jtwc_sh SH121947 -19.0000 148.100 -1 -18.5348 148.519 -18.6544 148.417 TC -18.9609 148.124 7 3 7
1947033S13147 1947 12 SP EA NOT_NAMED 1947-02-05 15:00:00 TS -18.6772 148.268 main 122 122 P_____P__PP___ SH121947 -18.8000 148.150 -1 -18.4331 148.456 -18.5323 148.392 TC -18.8207 148.191 7 3 1
1947033S13147 1947 12 SP EA NOT_NAMED 1947-02-05 18:00:00 TS -18.5236 148.269 main 138 138 O_____P__PP___ jtwc_sh SH121947 -18.6000 148.200 -1 -18.3416 148.361 -18.4159 148.335 TC -18.6605 148.247 7 3 1
1947033S13147 1947 12 SP EA NOT_NAMED 1947-02-05 21:00:00 TS -18.4060 148.268 main 146 146 P_____P__PP___ SH121947 -18.4850 148.265 -1 -18.2560 148.260 -18.3052 148.264 TC -18.4991 148.286 7 2 358
1947033S13147 1947 12 SP EA NOT_NAMED 1947-02-05 23:00:00 TS -18.3381 148.262 1001 bom main 155 155 P_____O__PO___ SH121947 -18.4281 148.295 -1 -18.2000 148.200 1001 -18.2344 148.220 TC -18.4000 148.300 7 2 0
1947033S13147 1947 12 SP EA NOT_NAMED 1947-02-06 00:00:00 TS -18.3052 148.262 main 155 155 O_____P__OP___ jtwc_sh SH121947 -18.4000 148.300 -1 -18.1636 148.209 -18.2000 148.200 TC 30 1001 -18.3624 148.299 7 2 352
1947033S13147 1947 12 SP EA NOT_NAMED 1947-02-06 03:00:00 TS -18.2026 148.250 main 158 158 P_____P__PP___ SH121947 -18.3000 148.257 -1 -18.0583 148.231 -18.0928 148.224 TC -18.2617 148.279 7 2 348
1947033S13147 1947 12 SP EA NOT_NAMED 1947-02-06 06:00:00 TS -18.1038 148.227 main 168 168 O_____P__PP___ jtwc_sh SH121947 -18.2000 148.200 -1 -17.9586 148.247 -17.9912 148.242 TC -18.1694 148.245 7 2 349
1947033S13147 1947 12 SP EA NOT_NAMED 1947-02-06 09:00:00 TS -18.0125 148.219 main 177 177 P_____P__PP___ SH121947 -18.1150 148.185 -1 -17.8645 148.259 -17.8953 148.255 TC -18.0728 148.213 7 2 357
1947033S13147 1947 12 SP EA NOT_NAMED 1947-02-06 11:00:00 TS -17.9458 148.222 main 187 187 P_____P__PO___ SH121947 -18.0448 148.192 -1 -17.8050 148.265 -17.8344 148.262 TC -18.0000 148.200 7 2 0
1947033S13147 1947 12 SP EA NOT_NAMED 1947-02-06 12:00:00 TS -17.9063 148.227 main 187 187 O_____P__PP___ jtwc_sh SH121947 -18.0000 148.200 -1 -17.7761 148.267 -17.8050 148.265 TC -17.9506 148.202 7 3 12
1947033S13147 1947 12 SP EA NOT_NAMED 1947-02-06 15:00:00 TS -17.7605 148.253 main 202 202 P_____P__PP___ SH121947 -17.8000 148.250 -1 -17.6933 148.275 -17.7203 148.272 TC -17.7886 148.218 7 3 11
1947033S13147 1947 12 SP EA NOT_NAMED 1947-02-06 18:00:00 TS -17.6162 148.282 main 222 222 O_____P__PP___ jtwc_sh SH121947 -17.6000 148.300 -1 -17.6161 148.283 -17.6412 148.280 TC -17.6234 148.245 7 3 7
1947033S13147 1947 12 SP EA NOT_NAMED 1947-02-06 21:00:00 TS -17.5088 148.292 main 232 232 P_____P__PP___ SH121947 -17.4775 148.300 -1 -17.5446 148.292 -17.5678 148.289 TC -17.4767 148.278 7 2 4
1947033S13147 1947 12 SP EA NOT_NAMED 1947-02-06 23:00:00 TS -17.4533 148.298 1003 bom main 232 232 P_____O__PO___ SH121947 -17.4224 148.297 -1 -17.5000 148.300 1003 -17.5220 148.296 TC -17.4000 148.300 7 2 0
1947033S13147 1947 12 SP EA NOT_NAMED 1947-02-07 00:00:00 TS -17.4293 148.303 main 233 233 O_____P__OP___ jtwc_sh SH121947 -17.4000 148.300 -1 -17.4726 148.306 -17.5000 148.300 TC 25 1003 -17.3737 148.308 7 2 27
1947033S13147 1947 12 SP EA NOT_NAMED 1947-02-07 03:00:00 TS -17.3602 148.335 main 233 233 P_____P__PP___ SH121947 -17.3350 148.350 -1 -17.3926 148.325 -17.4169 148.318 TC -17.3217 148.333 7 1 31
1947033S13147 1947 12 SP EA NOT_NAMED 1947-02-07 06:00:00 TS -17.3112 148.369 main 244 244 O_____P__PP___ jtwc_sh SH121947 -17.3000 148.400 -1 -17.3176 148.346 -17.3378 148.339 TC -17.3006 148.358 7 1 24
1947033S13147 1947 12 SP EA NOT_NAMED 1947-02-07 09:00:00 TS -17.2796 148.386 main 244 244 P_____P__PP___ SH121947 -17.2925 148.407 -1 -17.2499 148.369 -17.2654 148.361 TC -17.2978 148.383 7 1 0
1947033S13147 1947 12 SP EA NOT_NAMED 1947-02-07 11:00:00 TS -17.2654 148.393 main 244 244 P_____P__PO___ SH121947 -17.2974 148.403 -1 -17.2100 148.385 -17.2223 148.377 TC -17.3000 148.400 7 0 0
1947033S13147 1947 12 SP EA NOT_NAMED 1947-02-07 12:00:00 TS -17.2577 148.397 main 244 244 O_____P__PP___ jtwc_sh SH121947 -17.3000 148.400 -1 -17.1919 148.394 -17.2025 148.385 TC -17.2942 148.406 7 0 42
1947033S13147 1947 12 SP EA NOT_NAMED 1947-02-07 15:00:00 TS -17.2358 148.408 main 245 245 P_____P__PP___ SH121947 -17.3000 148.393 -1 -17.1459 148.420 -17.1518 148.411 TC -17.2812 148.422 7 0 24
1947033S13147 1947 12 SP EA NOT_NAMED 1947-02-07 18:00:00 TS -17.2215 148.426 main 245 245 O_____P__PP___ jtwc_sh SH121947 -17.3000 148.400 -1 -17.1143 148.449 -17.1159 148.439 TC -17.2774 148.442 7 1 56
1947033S13147 1947 12 SP EA NOT_NAMED 1947-02-07 21:00:00 TS -17.2136 148.458 main 255 255 P_____P__PP___ SH121947 -17.2925 148.435 -1 -17.0995 148.479 -17.0978 148.469 TC -17.2859 148.472 7 1 85
1947033S13147 1947 12 SP EA NOT_NAMED 1947-02-07 23:00:00 TS -17.2171 148.488 1003 bom main 255 255 P_____O__PO___ SH121947 -17.2943 148.475 -1 -17.1000 148.500 1003 -17.0968 148.489 TC -17.3000 148.500 7 1 101
1947033S13147 1947 12 SP EA NOT_NAMED 1947-02-08 00:00:00 TS -17.2211 148.505 main 255 255 O_____P__OP___ jtwc_sh SH121947 -17.3000 148.500 -1 -17.0981 148.508 -17.1000 148.500 TC 25 1003 -17.3075 148.518 7 1 110
1947033S13147 1947 12 SP EA NOT_NAMED 1947-02-08 03:00:00 TS -17.2471 148.568 main 266 265 P_____P__PP___ SH121947 -17.3425 148.600 -1 -17.1031 148.534 -17.1074 148.523 TC -17.3400 148.584 7 1 118
1947033S13147 1947 12 SP EA NOT_NAMED 1947-02-08 06:00:00 TS -17.2891 148.634 main 265 265 O_____P__PP___ jtwc_sh SH121947 -17.4000 148.700 -1 -17.1247 148.561 -17.1334 148.548 TC -17.3875 148.662 7 1 128
1947033S13147 1947 12 SP EA NOT_NAMED 1947-02-08 09:00:00 TS -17.3354 148.682 main 272 262 P_____P__PP___ SH121947 -17.4425 148.750 -1 -17.1638 148.591 -17.1782 148.575 TC -17.4500 148.745 7 1 136
1947033S13147 1947 12 SP EA NOT_NAMED 1947-02-08 11:00:00 TS -17.3748 148.714 main 262 262 P_____P__PO___ SH121947 -17.4776 148.780 -1 -17.1999 148.613 -17.2188 148.595 TC -17.5000 148.800 7 2 155
1947033S13147 1947 12 SP EA NOT_NAMED 1947-02-08 12:00:00 TS -17.3975 148.731 main 262 258 O_____P__PP___ jtwc_sh SH121947 -17.5000 148.800 -1 -17.2211 148.625 -17.2424 148.606 TC -17.5242 148.825 7 2 146
1947033S13147 1947 12 SP EA NOT_NAMED 1947-02-08 15:00:00 TS -17.4831 148.801 main 258 256 P_____P__PP___ SH121947 -17.5925 148.900 -1 -17.2975 148.663 -17.3263 148.642 TC -17.6067 148.900 7 2 143
1947033S13147 1947 12 SP EA NOT_NAMED 1947-02-08 18:00:00 TS -17.5856 148.874 main 256 247 O_____P__PP___ jtwc_sh SH121947 -17.7000 149.000 -1 -17.3936 148.708 -17.4302 148.686 TC -17.7042 148.975 7 2 150
1947033S13147 1947 12 SP EA NOT_NAMED 1947-02-08 21:00:00 TS -17.6933 148.930 main 247 245 P_____P__PP___ SH121947 -17.7925 149.050 -1 -17.5103 148.761 -17.5547 148.738 TC -17.8167 149.050 7 3 154
1947033S13147 1947 12 SP EA NOT_NAMED 1947-02-08 23:00:00 TS -17.7742 148.968 1003 bom main 245 245 P_____O__PO___ SH121947 -17.8609 149.080 -1 -17.6000 148.800 1003 -17.6492 148.778 TC -17.9000 149.100 7 3 157
1947033S13147 1947 12 SP EA NOT_NAMED 1947-02-09 00:00:00 TS -17.8137 148.988 main 245 237 O_____P__OP___ jtwc_sh SH121947 -17.9000 149.100 -1 -17.6265 148.812 -17.7000 148.800 TC 25 1003 -17.9421 149.126 7 3 152
1947033S13147 1947 12 SP EA NOT_NAMED 1947-02-09 03:00:00 TS -17.9340 149.063 main 245 228 P_____P__PP___ SH121947 -18.0425 149.200 -1 -17.7133 148.850 -17.7928 148.858 TC -18.0788 149.205 7 3 151
1947033S13147 1947 12 SP EA NOT_NAMED 1947-02-09 06:00:00 TS -18.0695 149.140 main 228 222 O_____P__PP___ jtwc_sh SH121947 -18.2000 149.300 -1 -17.8183 148.893 -17.9004 148.923 TC -18.2288 149.283 7 3 155
1947033S13147 1947 12 SP EA NOT_NAMED 1947-02-09 09:00:00 TS -18.2144 149.204 main 222 212 P_____P__PP___ SH121947 -18.3500 149.358 -1 -17.9507 148.948 -18.0325 148.999 TC -18.3890 149.356 7 3 159
1947033S13147 1947 12 SP EA NOT_NAMED 1947-02-09 11:00:00 TS -18.3195 149.244 main 212 207 P_____P__PO___ SH121947 -18.4500 149.386 -1 -18.0587 148.993 -18.1390 149.056 TC -18.5000 149.400 7 3 159
1947033S13147 1947 12 SP EA NOT_NAMED 1947-02-09 12:00:00 TS -18.3710 149.266 main 207 197 O_____P__PP___ jtwc_sh SH121947 -18.5000 149.400 -1 -18.1196 149.019 -18.1988 149.087 TC -18.5365 149.423 7 3 157
1947033S13147 1947 12 SP EA NOT_NAMED 1947-02-09 15:00:00 TS -18.5314 149.337 main 197 185 P_____P__PP___ SH121947 -18.6350 149.450 -1 -18.3342 149.111 -18.4090 149.189 TC -18.6440 149.485 7 4 159
1947033S13147 1947 12 SP EA NOT_NAMED 1947-02-09 18:00:00 TS -18.7318 149.415 main 185 162 O_____P__PP___ jtwc_sh SH121947 -18.8000 149.500 -1 -18.6038 149.230 -18.6728 149.307 TC -18.7823 149.539 7 5 161
1947033S13147 1947 12 SP EA NOT_NAMED 1947-02-09 21:00:00 TS -18.9855 149.504 main 162 148 P_____P__PP___ SH121947 -18.9975 149.557 -1 -18.9374 149.380 -18.9999 149.443 TC -18.9951 149.581 7 6 163
1947033S13147 1947 12 SP EA NOT_NAMED 1947-02-09 23:00:00 TS -19.2047 149.565 1002 bom main 148 139 P_____O__PO___ SH121947 -19.1829 149.589 -1 -19.2000 149.500 1002 -19.2579 149.545 TC -19.2000 149.600 7 7 165
1947033S13147 1947 12 SP EA NOT_NAMED 1947-02-10 00:00:00 TS -19.3314 149.603 main 139 109 O_____P__OP___ jtwc_sh SH121947 -19.3000 149.600 -1 -19.3276 149.613 -19.4000 149.600 TC 25 1002 -19.3294 149.601 7 9 167
1947033S13147 1947 12 SP EA NOT_NAMED 1947-02-10 03:00:00 TS -19.7928 149.712 main 109 96 P_____P__PP___ SH121947 -19.7400 149.608 -1 -19.7565 149.979 -19.9289 149.776 TC -19.7986 149.590 7 10 169
1947033S13147 1947 12 SP EA NOT_NAMED 1947-02-10 06:00:00 TS -20.3459 149.810 main 96 76 O_____P__PP___ jtwc_sh SH121947 -20.3000 149.600 -1 -20.2616 150.306 -20.5074 149.971 TC -20.3603 149.575 7 12 172
1947033S13147 1947 12 SP EA NOT_NAMED 1947-02-10 09:00:00 TS -20.9534 149.885 main 73 61 P_____P__PP___ SH121947 -20.9275 149.585 -1 -20.8529 150.497 -21.0821 150.181 TC -20.9769 149.577 7 13 174
1947033S13147 1947 12 SP EA NOT_NAMED 1947-02-10 11:00:00 TS -21.3776 149.921 bom main 56 51 P_____O__PO___ SH121947 -21.3755 149.589 -1 -21.3000 150.500 -21.4370 150.326 TC -21.4000 149.600 7 13 176
1947033S13147 1947 12 SP EA NOT_NAMED 1947-02-10 12:00:00 TS -21.5936 149.933 main 51 0 O_____P__OP___ jtwc_sh SH121947 -21.6000 149.600 -1 -21.5488 150.449 -21.6000 150.400 TC -21.6191 149.619 7 13 176
1947033S13147 1947 12 SP EA NOT_NAMED 1947-02-10 15:00:00 TS -22.2268 149.973 bom main 0 0 P_____O__PP___ SH121947 -22.2650 149.670 -1 -22.3000 150.200 -22.0021 150.627 TC -22.3017 149.699 7 12 175
1947033S13147 1947 12 SP EA NOT_NAMED 1947-02-10 18:00:00 TS -22.8061 150.040 main 0 0 O_____P__PP___ jtwc_sh SH121947 -22.9000 149.800 -1 -22.9162 149.921 -22.3405 150.859 TC -22.9737 149.818 7 11 172
1947033S13147 1947 12 SP EA NOT_NAMED 1947-02-10 21:00:00 TS -23.3284 150.142 main 0 0 P_____P__PP___ SH121947 -23.5100 149.985 -1 -23.4161 149.681 -22.6336 151.087 TC -23.5724 149.975 7 10 168
1947033S13147 1947 12 SP EA NOT_NAMED 1947-02-10 23:00:00 TS -23.6251 150.237 1002 bom main 0 0 P_____O__PO___ SH121947 -23.8562 150.128 -1 -23.7000 149.600 1002 -22.8130 151.231 TC -23.9000 150.100 7 9 162
1947033S13147 1947 12 SP EA NOT_NAMED 1947-02-11 00:00:00 TS -23.7569 150.292 main 0 0 O_____P__OP___ jtwc_sh SH121947 -24.0000 150.200 -1 -23.8532 149.596 -22.9000 151.300 TC 25 1002 -24.0310 150.164 7 8 155
1947033S13147 1947 12 SP EA NOT_NAMED 1947-02-11 03:00:00 TS -24.0779 150.469 main 0 0 P_____P__PP___ SH121947 -24.3174 150.385 -1 -24.2646 149.701 -23.1565 151.488 TC -24.3335 150.383 7 7 146
1947033S13147 1947 12 SP EA NOT_NAMED 1947-02-11 06:00:00 TS -24.3000 150.689 main 0 0 O_____P__PP___ jtwc_sh SH121947 -24.5000 150.600 -1 -24.5872 149.951 -23.3858 151.657 TC -24.5268 150.635 7 6 130
1947033S13147 1947 12 SP EA NOT_NAMED 1947-02-11 09:00:00 TS -24.4578 150.958 bom main 0 0 P_____O__PP___ SH121947 -24.6225 150.885 -1 -24.8000 150.300 -23.5987 151.809 TC -24.6454 150.909 7 6 118
1947033S13147 1947 12 SP EA NOT_NAMED 1947-02-11 11:00:00 TS -24.5293 151.153 main 0 0 P_____P__PO___ SH121947 -24.6745 151.095 -1 -24.8607 150.573 -23.7370 151.903 TC -24.7000 151.100 7 6 107
1947033S13147 1947 12 SP EA NOT_NAMED 1947-02-11 12:00:00 TS -24.5441 151.260 main 0 0 O_____P__PP___ jtwc_sh SH121947 -24.7000 151.200 -1 -24.8687 150.726 -23.8062 151.947 TC -24.7236 151.197 7 6 101
1947033S13147 1947 12 SP EA NOT_NAMED 1947-02-11 15:00:00 TS -24.6070 151.572 main 0 0 P_____P__PP___ SH121947 -24.7926 151.505 -1 -24.8319 151.217 -24.0193 152.073 TC -24.7843 151.492 7 6 99
1947033S13147 1947 12 SP EA NOT_NAMED 1947-02-11 18:00:00 TS -24.6392 151.887 main 0 0 O_____P__PP___ jtwc_sh SH121947 -24.9000 151.800 -1 -24.7539 151.700 -24.2486 152.189 TC -24.8333 151.793 7 6 95
1947033S13147 1947 12 SP EA NOT_NAMED 1947-02-11 21:00:00 TS -24.6570 152.178 bom main 0 0 ______O__PP___ SH121947 -1 -24.7000 152.100 -24.5053 152.297 TC -24.8746 152.097 7 5 101
1947033S13147 1947 12 SP EA NOT_NAMED 1947-02-11 23:00:00 TS -24.7208 152.329 1002 bom main 10 0 ______O__PO___ SH121947 -1 -24.7000 152.300 1002 -24.6968 152.366 TC -24.9000 152.300 7 5 122
1947033S13147 1947 12 SP EA NOT_NAMED 1947-02-12 00:00:00 TS -24.7768 152.390 main 0 0 ______P__O____ -1 -24.7535 152.380 -24.8000 152.400 TC 25 1002 7 7 156
1947033S13147 1947 12 SP EA NOT_NAMED 1947-02-12 03:00:00 TS -25.1182 152.522 main 0 0 ______P__P____ -1 -25.1034 152.537 -25.1378 152.500 TC 7 8 164
1947033S13147 1947 12 SP EA NOT_NAMED 1947-02-12 05:00:00 TS -25.3927 152.589 bom main 0 0 ______O__P____ -1 -25.4000 152.600 -25.3781 152.567 TC 7 8 166
1947033S13147 1947 12 SP EA NOT_NAMED 1947-02-12 06:00:00 TS -25.5156 152.626 main 0 0 ______P__O____ -1 -25.5196 152.633 -25.5000 152.600 TC 7 7 169
1947033S13147 1947 12 SP EA NOT_NAMED 1947-02-12 09:00:00 NR -25.8780 152.696 main 0 0 ______P_______ -1 -25.8780 152.696 TC 7 7 173
1947033S13147 1947 12 SP EA NOT_NAMED 1947-02-12 12:00:00 NR -26.2200 152.721 main 0 0 ______P_______ -1 -26.2200 152.721 7 177
1947033S13147 1947 12 SP EA NOT_NAMED 1947-02-12 15:00:00 NR -26.5250 152.727 main 0 0 ______P_______ -1 -26.5250 152.727 6 178
1947033S13147 1947 12 SP EA NOT_NAMED 1947-02-12 18:00:00 NR -26.7722 152.734 main 0 0 ______P_______ -1 -26.7722 152.734 4 174
1947033S13147 1947 12 SP EA NOT_NAMED 1947-02-12 21:00:00 NR -26.9411 152.761 main 0 0 ______P_______ -1 -26.9411 152.761 3 167
1947033S13147 1947 12 SP EA NOT_NAMED 1947-02-12 23:00:00 NR -27.0000 152.800 bom main 0 0 ______O_______ -1 -27.0000 152.800 2 126
1947033S13147 1947 12 SP EA NOT_NAMED 1947-02-13 00:00:00 NR -27.0032 152.855 main 0 0 ______P_______ -1 -27.0032 152.855 4 75
1947033S13147 1947 12 SP EA NOT_NAMED 1947-02-13 03:00:00 NR -26.9402 153.055 main 0 0 ______P_______ -1 -26.9402 153.055 4 60
1947033S13147 1947 12 SP EA NOT_NAMED 1947-02-13 06:00:00 NR -26.7827 153.293 main 19 19 ______P_______ -1 -26.7827 153.293 6 48
1947033S13147 1947 12 SP EA NOT_NAMED 1947-02-13 09:00:00 NR -26.5491 153.549 main 39 39 ______P_______ -1 -26.5491 153.549 7 41
1947033S13147 1947 12 SP EA NOT_NAMED 1947-02-13 12:00:00 NR -26.2578 153.808 main 69 69 ______P_______ -1 -26.2578 153.808 8 36
1947033S13147 1947 12 SP EA NOT_NAMED 1947-02-13 15:00:00 NR -25.9277 154.052 main 99 96 ______P_______ -1 -25.9277 154.052 8 31
1947033S13147 1947 12 SP EA NOT_NAMED 1947-02-13 18:00:00 NR -25.5774 154.264 main 109 100 ______P_______ -1 -25.5774 154.264 8 26
1947033S13147 1947 12 SP EA NOT_NAMED 1947-02-13 21:00:00 NR -25.2258 154.427 main 103 103 ______P_______ -1 -25.2258 154.427 7 20
1947033S13147 1947 12 SP EA NOT_NAMED 1947-02-13 23:00:00 NR -25.0000 154.500 1001 bom main 110 110 ______O_______ -1 -25.0000 154.500 1001 7 15
1947033S13147 1947 12 SP EA NOT_NAMED 1947-02-14 00:00:00 TS -24.8933 154.520 main 111 111 ______P_______ -1 -24.8916 154.525 6 6
1947033S13147 1947 12 SP EA NOT_NAMED 1947-02-14 03:00:00 NR -24.5853 154.552 main 129 124 ______P_______ -1 -24.5853 154.552 6 358
1947033S13147 1947 12 SP EA NOT_NAMED 1947-02-14 06:00:00 NR -24.3041 154.516 main 133 133 ______P_______ -1 -24.3041 154.516 6 348
1947033S13147 1947 12 SP EA NOT_NAMED 1947-02-14 09:00:00 NR -24.0442 154.428 main 142 142 ______P_______ -1 -24.0442 154.428 5 338
1947033S13147 1947 12 SP EA NOT_NAMED 1947-02-14 12:00:00 NR -23.8017 154.297 main 150 150 ______P_______ -1 -23.8017 154.297 5 330
1947033S13147 1947 12 SP EA NOT_NAMED 1947-02-14 15:00:00 NR -23.5729 154.132 main 156 156 ______P_______ -1 -23.5729 154.132 6 324
1947033S13147 1947 12 SP EA NOT_NAMED 1947-02-14 18:00:00 NR -23.3538 153.943 main 167 167 ______P_______ -1 -23.3538 153.943 6 320
1947033S13147 1947 12 SP EA NOT_NAMED 1947-02-14 21:00:00 NR -23.1406 153.740 main 194 194 ______P_______ -1 -23.1406 153.740 6 318
1947033S13147 1947 12 SP EA NOT_NAMED 1947-02-14 23:00:00 NR -23.0000 153.600 1003 bom main 203 ______O_______ -1 -23.0000 153.600 1003 6 317

Digital Typhoon Data and Search

About IBTrACS Database

This database is a web-friendly format of International Best Track Archive for Climate Stewardship (IBTrACS), a global best track data archive curated by NOAA dating back to 1842.

Updated: 2021-11-26